createdAt,value
2022-11-16T00:03:35.845Z,10.73
2022-11-16T00:08:41.147Z,10.71
2022-11-16T00:13:43.465Z,10.72
2022-11-16T00:18:45.214Z,10.75
2022-11-16T00:23:46.632Z,10.75
2022-11-16T00:28:48.650Z,10.77
2022-11-16T00:33:50.860Z,10.71
2022-11-16T00:38:55.845Z,10.65
2022-11-16T00:43:57.440Z,10.56
2022-11-16T00:48:59.009Z,10.52
2022-11-16T00:54:00.838Z,10.57
2022-11-16T00:59:03.019Z,10.51
2022-11-16T01:04:04.600Z,10.51
2022-11-16T01:09:06.179Z,10.42
2022-11-16T01:14:08.557Z,10.40
2022-11-16T01:19:10.363Z,10.27
2022-11-16T01:24:11.792Z,10.21
2022-11-16T01:29:13.278Z,10.13
2022-11-16T01:34:19.352Z,10.06
2022-11-16T01:39:21.155Z,10.02
2022-11-16T01:44:33.455Z,9.97
2022-11-16T01:49:51.681Z,9.94
2022-11-16T01:54:56.607Z,9.96
2022-11-16T02:00:03.254Z,9.99
2022-11-16T02:05:19.657Z,9.97
2022-11-16T02:10:50.219Z,9.99
2022-11-16T02:16:25.915Z,9.96
2022-11-16T02:21:50.103Z,9.96
2022-11-16T02:27:14.872Z,9.94
2022-11-16T02:32:21.416Z,9.90
2022-11-16T02:37:25.857Z,9.90
2022-11-16T02:42:40.307Z,9.94
2022-11-16T02:47:44.528Z,9.93
2022-11-16T02:52:46.568Z,9.91
2022-11-16T02:58:00.565Z,9.90
2022-11-16T03:03:11.754Z,9.86
2022-11-16T03:08:36.381Z,9.83
2022-11-16T03:13:40.941Z,9.81
2022-11-16T03:18:46.877Z,9.78
2022-11-16T03:23:48.991Z,9.72
2022-11-16T03:29:01.077Z,9.66
2022-11-16T03:34:10.417Z,9.63
2022-11-16T03:39:21.317Z,9.53
2022-11-16T03:44:23.071Z,9.50
2022-11-16T03:49:24.741Z,9.46
2022-11-16T03:54:28.348Z,9.40
2022-11-16T03:59:29.941Z,9.40
2022-11-16T04:04:50.685Z,9.33
2022-11-16T04:10:11.866Z,9.28
2022-11-16T04:15:33.021Z,9.25
2022-11-16T04:20:53.707Z,9.20
2022-11-16T04:25:55.866Z,9.12
2022-11-16T04:31:19.169Z,9.07
2022-11-16T04:36:44.250Z,8.97
2022-11-16T04:42:05.087Z,8.93
2022-11-16T04:47:08.240Z,8.91
2022-11-16T04:52:12.719Z,8.85
2022-11-16T04:57:14.732Z,8.75
2022-11-16T05:02:16.440Z,8.73
2022-11-16T05:07:28.423Z,8.66
2022-11-16T05:12:37.768Z,8.61
2022-11-16T05:17:44.046Z,8.59
2022-11-16T05:22:58.186Z,8.56
2022-11-16T05:28:05.038Z,8.54
2022-11-16T05:33:11.778Z,8.49
2022-11-16T05:38:16.292Z,8.41
2022-11-16T05:43:21.357Z,8.43
2022-11-16T05:48:30.927Z,8.46
2022-11-16T05:53:32.652Z,8.45
2022-11-16T05:58:34.575Z,8.47
2022-11-16T06:03:36.722Z,8.49
2022-11-16T06:08:39.140Z,8.47
2022-11-16T06:13:44.756Z,8.45
2022-11-16T06:18:47.855Z,8.49
2022-11-16T06:23:50.537Z,8.49
2022-11-16T06:28:55.117Z,8.53
2022-11-16T06:33:57.870Z,8.50
2022-11-16T06:39:01.948Z,8.49
2022-11-16T06:44:05.778Z,8.48
2022-11-16T06:49:11.198Z,8.48
2022-11-16T06:54:13.139Z,8.47
2022-11-16T06:59:15.687Z,8.44
2022-11-16T07:04:17.972Z,8.43
2022-11-16T07:09:29.676Z,8.38
2022-11-16T07:14:31.451Z,8.38
2022-11-16T07:19:33.333Z,8.36
2022-11-16T07:24:35.215Z,8.30
2022-11-16T07:29:38.037Z,8.29
2022-11-16T07:34:59.238Z,8.27
2022-11-16T07:40:01.796Z,8.24
2022-11-16T07:45:07.095Z,8.21
2022-11-16T07:50:13.151Z,8.18
2022-11-16T07:55:14.877Z,8.15
2022-11-16T08:00:17.941Z,8.16
2022-11-16T08:05:26.198Z,8.13
2022-11-16T08:10:30.942Z,8.10
2022-11-16T08:15:33.598Z,8.06
2022-11-16T08:20:38.726Z,8.03
2022-11-16T08:25:40.826Z,8.02
2022-11-16T08:30:48.376Z,8.03
2022-11-16T08:35:54.211Z,8.01
2022-11-16T08:40:56.347Z,8.01
2022-11-16T08:46:00.171Z,8.03
2022-11-16T08:51:20.504Z,8.04
2022-11-16T08:56:30.104Z,8.03
2022-11-16T09:01:32.880Z,8.06
2022-11-16T09:06:35.617Z,8.05
2022-11-16T09:11:37.420Z,8.05
2022-11-16T09:16:38.975Z,8.09
2022-11-16T09:21:40.615Z,8.10
2022-11-16T09:26:42.137Z,8.09
2022-11-16T09:31:44.052Z,8.13
2022-11-16T09:36:45.607Z,8.09
2022-11-16T09:42:05.825Z,8.12
2022-11-16T09:47:21.644Z,8.08
2022-11-16T09:52:42.426Z,8.15
2022-11-16T09:57:45.085Z,8.15
2022-11-16T10:02:53.659Z,8.17
2022-11-16T10:08:03.584Z,8.14
2022-11-16T10:13:23.815Z,8.20
2022-11-16T10:18:59.075Z,8.18
2022-11-16T10:24:06.345Z,8.17
2022-11-16T10:29:30.234Z,8.16
2022-11-16T10:34:49.886Z,8.17
2022-11-16T10:39:53.256Z,8.20
2022-11-16T10:45:15.463Z,8.17
2022-11-16T10:50:41.169Z,8.10
2022-11-16T10:55:42.877Z,8.10
2022-11-16T11:00:51.527Z,8.13
2022-11-16T11:05:53.618Z,8.05
2022-11-16T11:11:24.592Z,8.04
2022-11-16T11:16:27.233Z,8.06
2022-11-16T11:21:28.844Z,8.08
2022-11-16T11:26:37.785Z,8.06
2022-11-16T11:31:44.947Z,8.03
2022-11-16T11:36:54.769Z,8.01
2022-11-16T11:42:12.660Z,7.95
2022-11-16T11:53:07.593Z,7.95
2022-11-16T11:58:16.597Z,7.86
2022-11-16T12:03:55.893Z,7.83
2022-11-16T12:09:09.977Z,7.77
2022-11-16T12:14:18.129Z,7.73
2022-11-16T12:19:58.104Z,7.85
2022-11-16T12:25:40.858Z,7.88
2022-11-16T12:31:03.908Z,7.85
2022-11-16T12:36:29.256Z,7.84
2022-11-16T12:42:01.360Z,7.83
2022-11-16T12:47:28.679Z,7.82
2022-11-16T12:52:43.387Z,7.86
2022-11-16T12:57:50.612Z,7.84
2022-11-16T13:03:14.789Z,7.78
2022-11-16T13:08:27.515Z,7.69
2022-11-16T13:13:36.248Z,7.69
2022-11-16T13:18:43.033Z,7.64
2022-11-16T13:24:00.279Z,7.68
2022-11-16T13:29:04.759Z,7.67
2022-11-16T13:34:14.729Z,7.71
2022-11-16T13:39:22.935Z,7.66
2022-11-16T13:44:28.451Z,7.58
2022-11-16T13:49:40.818Z,7.60
2022-11-16T13:54:47.052Z,7.59
2022-11-16T13:59:55.301Z,7.47
2022-11-16T14:04:56.877Z,7.48
2022-11-16T14:09:58.448Z,7.43
2022-11-16T14:15:16.638Z,7.35
2022-11-16T14:20:37.068Z,7.32
2022-11-16T14:25:42.025Z,7.25
2022-11-16T14:30:53.764Z,7.18
2022-11-16T14:35:55.676Z,7.16
2022-11-16T14:41:00.048Z,7.10
2022-11-16T14:46:07.995Z,7.03
2022-11-16T14:51:22.077Z,7.00
2022-11-16T14:56:23.641Z,7.00
2022-11-16T15:01:39.417Z,7.02
2022-11-16T15:06:47.623Z,6.97
2022-11-16T15:12:09.643Z,6.95
2022-11-16T15:17:20.284Z,6.86
2022-11-16T15:22:22.313Z,6.84
2022-11-16T15:27:33.521Z,6.87
2022-11-16T15:32:38.169Z,6.86
2022-11-16T15:37:39.617Z,6.78
2022-11-16T15:42:42.001Z,6.71
2022-11-16T15:47:46.743Z,6.68
2022-11-16T15:52:55.901Z,6.66
2022-11-16T15:58:00.770Z,6.68
2022-11-16T16:03:16.131Z,6.62
2022-11-16T16:08:25.392Z,6.59
2022-11-16T16:13:30.512Z,6.62
2022-11-16T16:18:41.032Z,6.67
2022-11-16T16:23:56.365Z,6.66
2022-11-16T16:28:57.835Z,6.65
2022-11-16T16:33:59.465Z,6.65
2022-11-16T16:39:00.915Z,6.60
2022-11-16T16:44:05.305Z,6.61
2022-11-16T16:49:08.248Z,6.65
2022-11-16T16:54:13.530Z,6.60
2022-11-16T16:59:15.086Z,6.67
2022-11-16T17:04:16.633Z,6.64
2022-11-16T17:09:18.287Z,6.63
2022-11-16T17:14:24.199Z,6.60
2022-11-16T17:19:25.711Z,6.58
2022-11-16T17:24:27.226Z,6.56
2022-11-16T17:29:28.718Z,6.58
2022-11-16T17:34:31.655Z,6.57
2022-11-16T17:39:33.132Z,6.53
2022-11-16T17:44:34.625Z,6.52
2022-11-16T17:49:36.632Z,6.53
2022-11-16T17:54:38.101Z,6.53
2022-11-16T17:59:39.565Z,6.56
2022-11-16T18:04:41.174Z,6.58
2022-11-16T18:09:42.889Z,6.53
2022-11-16T18:14:59.877Z,6.49
2022-11-16T18:20:08.263Z,6.48
2022-11-16T18:25:09.710Z,6.47
2022-11-16T18:30:11.526Z,6.47
2022-11-16T18:35:13.047Z,6.50
2022-11-16T18:40:14.940Z,6.46
2022-11-16T18:45:16.407Z,6.42
2022-11-16T18:50:24.022Z,6.42
2022-11-16T18:55:27.949Z,6.40
2022-11-16T19:00:29.498Z,6.33
2022-11-16T19:05:31.049Z,6.38
2022-11-16T19:10:36.733Z,6.31
2022-11-16T19:15:40.919Z,6.30
2022-11-16T19:20:42.456Z,6.33
2022-11-16T19:25:43.907Z,6.34
2022-11-16T19:30:45.376Z,6.33
2022-11-16T19:35:46.963Z,6.30
2022-11-16T19:40:50.466Z,6.30
2022-11-16T19:45:51.936Z,6.35
2022-11-16T19:50:53.794Z,6.33
2022-11-16T19:55:55.328Z,6.36
2022-11-16T20:01:02.003Z,6.31
2022-11-16T20:06:08.770Z,6.37
2022-11-16T20:11:15.276Z,6.42
2022-11-16T20:16:18.400Z,6.41
2022-11-16T20:21:32.958Z,6.44
2022-11-16T20:26:35.802Z,6.47
2022-11-16T20:31:38.377Z,6.47
2022-11-16T20:36:42.110Z,6.48
2022-11-16T20:41:44.236Z,6.48
2022-11-16T20:46:45.724Z,6.46
2022-11-16T20:51:48.583Z,6.46
2022-11-16T20:56:50.411Z,6.45
2022-11-16T21:01:55.025Z,6.44
2022-11-16T21:06:56.658Z,6.44
2022-11-16T21:12:18.090Z,6.41
2022-11-16T21:17:19.613Z,6.41
2022-11-16T21:22:21.138Z,6.41
2022-11-16T21:27:22.597Z,6.41
2022-11-16T21:32:26.289Z,6.39
2022-11-16T21:37:27.737Z,6.35
2022-11-16T21:42:29.261Z,6.30
2022-11-16T21:47:30.745Z,6.28
2022-11-16T21:52:32.574Z,6.28
2022-11-16T21:57:34.255Z,6.24
2022-11-16T22:02:40.914Z,6.19
2022-11-16T22:07:42.357Z,6.14
2022-11-16T22:12:43.837Z,6.08
2022-11-16T22:17:45.388Z,6.07
2022-11-16T22:22:46.982Z,6.00
2022-11-16T22:28:18.567Z,6.01
2022-11-16T22:33:10.861Z,5.97
2022-11-16T22:38:12.360Z,5.93
2022-11-16T22:43:13.867Z,5.94
2022-11-16T22:48:15.571Z,5.91
2022-11-16T22:53:17.421Z,5.81
2022-11-16T22:58:18.923Z,5.79
2022-11-16T23:03:20.463Z,5.77
2022-11-16T23:08:24.893Z,5.77
2022-11-16T23:13:45.074Z,5.70
2022-11-16T23:18:46.515Z,5.68
2022-11-16T23:24:25.857Z,5.72
2022-11-16T23:29:27.295Z,5.67
2022-11-16T23:34:28.742Z,5.69
2022-11-16T23:39:30.571Z,5.67
2022-11-16T23:44:32.022Z,5.65
2022-11-16T23:49:33.522Z,5.68
2022-11-16T23:54:35.373Z,5.63
2022-11-16T23:59:36.835Z,5.60
